Wetterdaten: Woche 31.07.17 - 06.08.17 (KW31)
Datum Zeit Temp. Aussen Temp. o. S. +5cm Feuchte Auss BlattFeu 1 Luftdruck Regen Sonnenschein Regendauer Solar Windben Empfang
31.07.2017 00:00 19,2 C 18,2 C 17,0 C 84 % 1 lf 1010,9 hPa 0,0 l/m 0,00 h 0,03 h 0 W/m 4,4 km/h (1 Bft) 93,86 %
31.07.2017 01:00 18,6 C 17,3 C 15,9 C 88 % 0 lf 1011,2 hPa 0,0 l/m 0,00 h 0,00 h 0 W/m 5,3 km/h (1 Bft) 97,66 %
31.07.2017 02:00 17,7 C 16,2 C 14,7 C 90 % 2 lf 1011,0 hPa 0,0 l/m 0,00 h 0,00 h 0 W/m 3,1 km/h (1 Bft) 96,65 %
31.07.2017 03:00 16,8 C 15,5 C 14,6 C 91 % 2 lf 1011,0 hPa 0,0 l/m 0,00 h 0,07 h 0 W/m 2,7 km/h (1 Bft) 97,00 %
31.07.2017 04:00 16,1 C 14,7 C 13,6 C 92 % 2 lf 1011,0 hPa 0,0 l/m 0,00 h 0,00 h 0 W/m 2,5 km/h (1 Bft) 96,14 %
31.07.2017 05:00 15,5 C 14,3 C 13,1 C 93 % 9 lf 1011,1 hPa 0,0 l/m 0,00 h 0,00 h 8 W/m 1,0 km/h (0 Bft) 95,79 %
31.07.2017 06:00 15,2 C 14,9 C 13,8 C 94 % 15 lf 1011,3 hPa 0,0 l/m 0,47 h 0,00 h 32 W/m 3,0 km/h (1 Bft) 95,78 %
31.07.2017 07:00 15,6 C 16,0 C 14,7 C 96 % 2 lf 1011,5 hPa 0,0 l/m 0,97 h 0,00 h 167 W/m 7,7 km/h (2 Bft) 99,02 %
31.07.2017 08:00 16,6 C 20,1 C 17,0 C 91 % 0 lf 1011,9 hPa 0,0 l/m 0,83 h 0,00 h 264 W/m 13,2 km/h (3 Bft) 92,94 %
31.07.2017 09:00 19,7 C 25,4 C 20,7 C 75 % 0 lf 1012,4 hPa 0,0 l/m 1,00 h 0,00 h 409 W/m 20,8 km/h (4 Bft) 97,28 %
31.07.2017 10:00 21,2 C 26,1 C 24,2 C 69 % 0 lf 1012,7 hPa 0,0 l/m 1,00 h 0,00 h 502 W/m 22,2 km/h (4 Bft) 97,82 %
31.07.2017 11:00 22,9 C 29,5 C 28,4 C 65 % 0 lf 1013,0 hPa 0,0 l/m 1,00 h 0,00 h 703 W/m 21,4 km/h (4 Bft) 95,39 %
31.07.2017 12:00 23,9 C 29,5 C 28,3 C 62 % 0 lf 1013,4 hPa 0,0 l/m 0,97 h 0,00 h 662 W/m 19,5 km/h (3 Bft) 96,92 %
31.07.2017 13:00 24,1 C 28,5 C 26,8 C 59 % 0 lf 1013,6 hPa 0,0 l/m 0,93 h 0,00 h 664 W/m 17,4 km/h (3 Bft) 96,86 %
31.07.2017 14:00 25,6 C 31,7 C 32,4 C 53 % 0 lf 1013,5 hPa 0,0 l/m 1,00 h 0,00 h 842 W/m 16,4 km/h (3 Bft) 97,78 %
31.07.2017 15:00 26,1 C 28,7 C 31,5 C 51 % 0 lf 1013,3 hPa 0,0 l/m 1,00 h 0,00 h 840 W/m 14,6 km/h (3 Bft) 95,25 %
31.07.2017 16:00 25,8 C 27,6 C 30,1 C 52 % 0 lf 1013,0 hPa 0,0 l/m 1,00 h 0,00 h 738 W/m 11,8 km/h (2 Bft) 97,65 %
31.07.2017 17:00 26,4 C 26,8 C 26,7 C 51 % 0 lf 1012,4 hPa 0,0 l/m 1,00 h 0,00 h 487 W/m 10,7 km/h (2 Bft) 98,11 %
31.07.2017 18:00 25,4 C 25,9 C 24,6 C 55 % 0 lf 1012,5 hPa 0,0 l/m 0,63 h 0,00 h 258 W/m 11,3 km/h (2 Bft) 94,64 %
31.07.2017 19:00 24,1 C 24,0 C 22,7 C 59 % 0 lf 1012,2 hPa 0,0 l/m 0,90 h 0,00 h 169 W/m 11,5 km/h (2 Bft) 96,09 %
31.07.2017 20:00 23,6 C 22,8 C 21,5 C 61 % 0 lf 1012,2 hPa 0,0 l/m 0,17 h 0,00 h 45 W/m 7,2 km/h (2 Bft) 99,21 %
31.07.2017 21:00 22,4 C 20,0 C 18,1 C 65 % 0 lf 1012,4 hPa 0,0 l/m 0,00 h 0,00 h 8 W/m 4,2 km/h (1 Bft) 93,10 %
31.07.2017 22:00 20,9 C 19,2 C 17,7 C 70 % 0 lf 1012,8 hPa 0,0 l/m 0,00 h 0,00 h 0 W/m 3,6 km/h (1 Bft) 97,36 %
31.07.2017 23:00 20,0 C 18,8 C 17,7 C 73 % 0 lf 1013,0 hPa 0,0 l/m 0,00 h 0,00 h 0 W/m 4,5 km/h (1 Bft) 97,08 %
01.08.2017 00:00 19,6 C 18,8 C 17,4 C 74 % 1 lf 1013,1 hPa 0,0 l/m 0,00 h 0,07 h 0 W/m 2,5 km/h (1 Bft) 85,64 %
01.08.2017 01:00 19,3 C 17,1 C 16,1 C 80 % 12 lf 1012,2 hPa 0,2 l/m 0,00 h 0,73 h 4 W/m 6,8 km/h (2 Bft) 95,23 %
01.08.2017 02:00 18,6 C 16,3 C 15,1 C 83 % 9 lf 1012,0 hPa 0,0 l/m 0,00 h 0,13 h 5 W/m 2,5 km/h (1 Bft) 97,86 %
01.08.2017 03:00 17,5 C 15,7 C 14,5 C 87 % 0 lf 1012,4 hPa 0,0 l/m 0,00 h 0,00 h 5 W/m 1,8 km/h (1 Bft) 94,87 %
01.08.2017 04:00 16,7 C 15,5 C 14,2 C 89 % 0 lf 1012,2 hPa 0,0 l/m 0,00 h 0,00 h 5 W/m 1,8 km/h (1 Bft) 97,22 %
01.08.2017 05:00 16,3 C 15,6 C 14,4 C 91 % 0 lf 1012,0 hPa 0,0 l/m 0,00 h 0,00 h 6 W/m 0,0 km/h (0 Bft) 96,01 %
01.08.2017 06:00 16,1 C 15,5 C 14,4 C 91 % 0 lf 1011,8 hPa 0,0 l/m 0,13 h 0,00 h 28 W/m 0,0 km/h (0 Bft) 95,23 %
01.08.2017 07:00 16,4 C 17,9 C 16,5 C 92 % 0 lf 1012,3 hPa 0,0 l/m 0,60 h 0,00 h 134 W/m 3,6 km/h (1 Bft) 98,13 %
01.08.2017 08:00 17,7 C 20,0 C 18,9 C 88 % 0 lf 1013,2 hPa 0,0 l/m 0,30 h 0,00 h 153 W/m 4,6 km/h (1 Bft) 95,87 %
01.08.2017 09:00 19,3 C 21,0 C 20,6 C 83 % 0 lf 1013,8 hPa 0,0 l/m 0,07 h 0,00 h 169 W/m 6,0 km/h (2 Bft) 95,21 %
01.08.2017 10:00 20,0 C 20,4 C 20,1 C 81 % 0 lf 1013,8 hPa 0,0 l/m 0,00 h 0,03 h 131 W/m 7,6 km/h (2 Bft) 98,93 %
01.08.2017 11:00 20,3 C 22,9 C 22,1 C 81 % 0 lf 1013,4 hPa 0,0 l/m 0,23 h 0,00 h 293 W/m 5,2 km/h (1 Bft) 95,51 %
01.08.2017 12:00 21,9 C 24,6 C 24,6 C 75 % 0 lf 1014,3 hPa 0,0 l/m 0,20 h 0,00 h 316 W/m 6,8 km/h (2 Bft) 96,32 %
01.08.2017 13:00 22,7 C 24,7 C 24,5 C 72 % 0 lf 1014,6 hPa 0,0 l/m 0,13 h 0,00 h 299 W/m 8,4 km/h (2 Bft) 96,87 %
01.08.2017 14:00 22,5 C 24,0 C 22,8 C 70 % 0 lf 1014,2 hPa 0,0 l/m 0,00 h 0,00 h 197 W/m 8,3 km/h (2 Bft) 97,69 %
01.08.2017 15:00 22,6 C 26,0 C 24,3 C 67 % 0 lf 1014,2 hPa 0,0 l/m 0,20 h 0,00 h 330 W/m 8,5 km/h (2 Bft) 94,94 %
01.08.2017 16:00 23,2 C 24,5 C 23,7 C 66 % 0 lf 1014,2 hPa 0,0 l/m 0,03 h 0,00 h 178 W/m 5,7 km/h (1 Bft) 96,37 %
01.08.2017 17:00 22,6 C 20,7 C 19,4 C 73 % 10 lf 1014,4 hPa 0,2 l/m 0,00 h 0,43 h 81 W/m 6,7 km/h (2 Bft) 97,94 %
01.08.2017 18:00 20,7 C 20,2 C 17,7 C 81 % 2 lf 1014,6 hPa 0,2 l/m 0,00 h 0,07 h 89 W/m 8,5 km/h (2 Bft) 96,22 %
01.08.2017 19:00 19,9 C 20,2 C 18,8 C 84 % 3 lf 1014,4 hPa 0,0 l/m 0,40 h 0,13 h 137 W/m 10,2 km/h (2 Bft) 94,59 %
01.08.2017 20:00 19,4 C 19,0 C 18,0 C 83 % 0 lf 1015,0 hPa 0,0 l/m 0,03 h 0,00 h 35 W/m 4,9 km/h (1 Bft) 99,07 %
01.08.2017 21:00 19,1 C 17,8 C 16,5 C 86 % 0 lf 1015,7 hPa 0,0 l/m 0,00 h 0,00 h 8 W/m 1,3 km/h (1 Bft) 95,92 %
01.08.2017 22:00 17,9 C 15,7 C 14,5 C 88 % 2 lf 1015,9 hPa 0,0 l/m 0,00 h 0,00 h 4 W/m 0,8 km/h (0 Bft) 95,05 %
01.08.2017 23:00 16,8 C 14,7 C 13,8 C 90 % 7 lf 1016,0 hPa 0,0 l/m 0,00 h 0,00 h 5 W/m 0,5 km/h (0 Bft) 97,94 %
02.08.2017 00:00 15,8 C 14,1 C 13,1 C 91 % 15 lf 1016,2 hPa 0,0 l/m 0,00 h 0,00 h 0 W/m 0,0 km/h (0 Bft) 96,15 %
02.08.2017 01:00 15,2 C 14,1 C 12,8 C 93 % 15 lf 1016,2 hPa 0,0 l/m 0,00 h 0,00 h 0 W/m 1,4 km/h (1 Bft) 94,86 %
02.08.2017 02:00 14,8 C 14,0 C 12,9 C 94 % 15 lf 1016,2 hPa 0,0 l/m 0,00 h 0,00 h 0 W/m 4,3 km/h (1 Bft) 97,45 %
02.08.2017 03:00 15,0 C 14,9 C 13,5 C 96 % 15 lf 1015,9 hPa 0,0 l/m 0,00 h 0,00 h 0 W/m 6,4 km/h (2 Bft) 95,58 %
02.08.2017 04:00 15,3 C 15,1 C 13,6 C 96 % 15 lf 1015,7 hPa 0,0 l/m 0,00 h 0,00 h 0 W/m 4,2 km/h (1 Bft) 97,16 %
02.08.2017 05:00 15,2 C 14,8 C 13,6 C 97 % 15 lf 1015,3 hPa 0,0 l/m 0,00 h 0,00 h 0 W/m 7,6 km/h (2 Bft) 96,58 %
02.08.2017 06:00 15,4 C 15,6 C 14,3 C 97 % 6 lf 1015,6 hPa 0,0 l/m 0,00 h 0,08 h 3 W/m 7,9 km/h (2 Bft) 94,65 %
02.08.2017 07:00 15,9 C 15,7 C 14,9 C 97 % 14 lf 1015,9 hPa 1,0 l/m 0,00 h 0,38 h 32 W/m 8,1 km/h (2 Bft) 98,15 %
02.08.2017 08:00 16,8 C 17,5 C 16,5 C 98 % 14 lf 1016,2 hPa 0,0 l/m 0,00 h 0,00 h 57 W/m 7,2 km/h (2 Bft) 98,27 %
02.08.2017 09:00 18,2 C 20,4 C 18,4 C 96 % 0 lf 1016,8 hPa 0,0 l/m 0,03 h 0,00 h 191 W/m 16,7 km/h (3 Bft) 92,51 %
02.08.2017 10:00 19,9 C 24,4 C 21,7 C 83 % 0 lf 1017,1 hPa 0,0 l/m 0,43 h 0,00 h 431 W/m 13,4 km/h (3 Bft) 98,23 %
02.08.2017 11:00 22,1 C 29,8 C 25,7 C 71 % 0 lf 1017,3 hPa 0,0 l/m 1,00 h 0,00 h 794 W/m 11,9 km/h (2 Bft) 97,42 %
02.08.2017 12:00 24,2 C 30,2 C 28,3 C 62 % 0 lf 1017,2 hPa 0,0 l/m 1,00 h 0,00 h 778 W/m 11,9 km/h (2 Bft) 94,68 %
02.08.2017 13:00 25,0 C 28,4 C 28,0 C 58 % 0 lf 1016,8 hPa 0,0 l/m 1,00 h 0,00 h 720 W/m 13,8 km/h (3 Bft) 97,06 %
02.08.2017 14:00 25,1 C 27,1 C 27,2 C 58 % 0 lf 1016,3 hPa 0,0 l/m 1,00 h 0,00 h 646 W/m 18,2 km/h (3 Bft) 97,39 %
02.08.2017 15:00 24,2 C 24,7 C 24,4 C 59 % 0 lf 1015,8 hPa 0,0 l/m 0,07 h 0,10 h 214 W/m 15,7 km/h (3 Bft) 95,55 %
02.08.2017 16:00 23,5 C 22,4 C 20,9 C 65 % 3 lf 1015,6 hPa 0,0 l/m 0,00 h 0,93 h 134 W/m 14,7 km/h (3 Bft) 96,94 %
02.08.2017 17:00 21,8 C 20,9 C 18,4 C 76 % 12 lf 1015,5 hPa 0,2 l/m 0,00 h 0,80 h 62 W/m 9,1 km/h (2 Bft) 96,22 %
02.08.2017 18:00 21,6 C 22,0 C 20,7 C 79 % 0 lf 1015,0 hPa 0,0 l/m 0,00 h 0,03 h 110 W/m 7,1 km/h (2 Bft) 98,53 %
02.08.2017 19:00 20,7 C 20,2 C 19,2 C 76 % 2 lf 1014,8 hPa 0,2 l/m 0,00 h 0,13 h 60 W/m 7,6 km/h (2 Bft) 94,22 %
02.08.2017 20:00 19,6 C 17,0 C 15,9 C 82 % 15 lf 1014,9 hPa 2,0 l/m 0,00 h 0,87 h 12 W/m 3,5 km/h (1 Bft) 97,59 %
02.08.2017 21:00 18,2 C 16,2 C 15,7 C 89 % 15 lf 1015,1 hPa 2,4 l/m 0,00 h 0,83 h 9 W/m 5,0 km/h (1 Bft) 96,84 %
02.08.2017 22:00 17,4 C 16,3 C 15,7 C 93 % 15 lf 1014,7 hPa 1,4 l/m 0,00 h 0,73 h 0 W/m 5,2 km/h (1 Bft) 96,04 %
02.08.2017 23:00 17,4 C 16,7 C 16,0 C 95 % 15 lf 1014,1 hPa 0,0 l/m 0,00 h 0,10 h 0 W/m 5,4 km/h (1 Bft) 95,37 %
03.08.2017 00:00 17,3 C 16,7 C 16,1 C 97 % 15 lf 1013,5 hPa 0,2 l/m 0,00 h 0,30 h 0 W/m 6,6 km/h (2 Bft) 97,36 %
03.08.2017 01:00 17,3 C 16,7 C 16,1 C 97 % 15 lf 1013,3 hPa 1,2 l/m 0,00 h 0,80 h 0 W/m 5,2 km/h (1 Bft) 96,09 %
03.08.2017 02:00 17,4 C 16,7 C 16,1 C 98 % 15 lf 1012,2 hPa 0,0 l/m 0,00 h 0,40 h 0 W/m 4,6 km/h (1 Bft) 97,04 %
03.08.2017 03:00 17,4 C 16,7 C 16,1 C 98 % 15 lf 1011,2 hPa 0,0 l/m 0,00 h 0,47 h 0 W/m 7,3 km/h (2 Bft) 96,30 %
03.08.2017 04:00 17,4 C 16,7 C 16,1 C 98 % 15 lf 1010,6 hPa 0,2 l/m 0,00 h 0,33 h 0 W/m 7,8 km/h (2 Bft) 96,29 %
03.08.2017 05:00 17,6 C 17,2 C 16,2 C 98 % 15 lf 1009,6 hPa 0,2 l/m 0,00 h 0,37 h 0 W/m 14,2 km/h (3 Bft) 97,74 %
03.08.2017 06:00 17,8 C 17,3 C 16,7 C 99 % 15 lf 1008,9 hPa 0,0 l/m 0,00 h 0,27 h 6 W/m 13,0 km/h (3 Bft) 95,45 %
03.08.2017 07:00 18,3 C 17,8 C 17,0 C 99 % 15 lf 1008,9 hPa 0,2 l/m 0,00 h 0,67 h 32 W/m 11,5 km/h (2 Bft) 95,45 %
03.08.2017 08:00 18,3 C 18,3 C 17,6 C 99 % 11 lf 1009,0 hPa 0,0 l/m 0,00 h 0,00 h 86 W/m 12,1 km/h (2 Bft) 99,29 %
03.08.2017 09:00 19,2 C 19,5 C 18,2 C 97 % 1 lf 1009,2 hPa 0,0 l/m 0,00 h 0,40 h 161 W/m 16,1 km/h (3 Bft) 94,30 %
03.08.2017 10:00 20,0 C 21,0 C 18,2 C 88 % 5 lf 1009,2 hPa 0,2 l/m 0,00 h 0,37 h 225 W/m 21,7 km/h (4 Bft) 96,31 %
03.08.2017 11:00 21,7 C 25,1 C 22,7 C 82 % 0 lf 1008,9 hPa 0,0 l/m 0,33 h 0,00 h 354 W/m 26,2 km/h (4 Bft) 98,08 %
03.08.2017 12:00 21,1 C 20,6 C 19,2 C 86 % 5 lf 1009,4 hPa 0,0 l/m 0,00 h 0,37 h 223 W/m 29,1 km/h (5 Bft) 95,76 %
03.08.2017 13:00 20,6 C 23,9 C 20,8 C 88 % 1 lf 1009,8 hPa 0,0 l/m 0,33 h 0,33 h 363 W/m 26,2 km/h (4 Bft) 95,05 %
03.08.2017 14:00 22,7 C 25,7 C 23,7 C 80 % 0 lf 1009,3 hPa 0,0 l/m 0,17 h 0,00 h 330 W/m 31,2 km/h (5 Bft) 99,00 %
03.08.2017 15:00 23,6 C 26,0 C 25,9 C 76 % 0 lf 1009,1 hPa 0,0 l/m 0,27 h 0,03 h 311 W/m 23,5 km/h (4 Bft) 96,29 %
03.08.2017 16:00 25,0 C 27,2 C 27,7 C 67 % 0 lf 1009,1 hPa 0,0 l/m 0,43 h 0,00 h 305 W/m 27,6 km/h (4 Bft) 95,52 %
03.08.2017 17:00 25,2 C 26,0 C 24,2 C 61 % 0 lf 1009,4 hPa 0,0 l/m 0,97 h 0,00 h 363 W/m 27,6 km/h (4 Bft) 96,60 %
03.08.2017 18:00 24,2 C 24,3 C 22,3 C 60 % 0 lf 1009,5 hPa 0,0 l/m 1,00 h 0,00 h 283 W/m 26,6 km/h (4 Bft) 98,34 %
03.08.2017 19:00 23,2 C 23,0 C 21,1 C 61 % 0 lf 1009,7 hPa 0,0 l/m 1,00 h 0,00 h 213 W/m 25,2 km/h (4 Bft) 93,82 %
03.08.2017 20:00 22,4 C 21,9 C 20,0 C 62 % 0 lf 1010,2 hPa 0,0 l/m 0,97 h 0,00 h 109 W/m 16,8 km/h (3 Bft) 97,02 %
03.08.2017 21:00 21,2 C 20,1 C 18,3 C 65 % 0 lf 1010,7 hPa 0,0 l/m 0,07 h 0,00 h 29 W/m 13,5 km/h (3 Bft) 97,99 %
03.08.2017 22:00 20,0 C 18,7 C 16,6 C 69 % 0 lf 1011,0 hPa 0,0 l/m 0,00 h 0,00 h 0 W/m 9,8 km/h (2 Bft) 95,78 %
03.08.2017 23:00 18,9 C 17,8 C 15,9 C 73 % 0 lf 1011,0 hPa 0,0 l/m 0,00 h 0,00 h 0 W/m 7,9 km/h (2 Bft) 95,07 %
04.08.2017 00:00 18,2 C 17,8 C 15,9 C 75 % 0 lf 1010,9 hPa 0,0 l/m 0,00 h 0,00 h 1 W/m 8,3 km/h (2 Bft) 98,88 %
04.08.2017 01:00 18,1 C 17,5 C 16,0 C 76 % 0 lf 1010,8 hPa 0,0 l/m 0,00 h 0,00 h 0 W/m 7,9 km/h (2 Bft) 95,01 %
04.08.2017 02:00 17,8 C 17,4 C 16,0 C 77 % 0 lf 1010,6 hPa 0,0 l/m 0,00 h 0,00 h 0 W/m 11,6 km/h (2 Bft) 96,32 %
04.08.2017 03:00 17,5 C 16,8 C 15,3 C 79 % 0 lf 1010,7 hPa 0,0 l/m 0,00 h 0,00 h 0 W/m 11,4 km/h (2 Bft) 96,59 %
04.08.2017 04:00 17,2 C 17,0 C 15,8 C 81 % 0 lf 1010,6 hPa 0,0 l/m 0,00 h 0,00 h 0 W/m 13,2 km/h (3 Bft) 95,05 %
04.08.2017 05:00 17,4 C 17,2 C 15,9 C 80 % 0 lf 1010,4 hPa 0,0 l/m 0,00 h 0,00 h 0 W/m 13,2 km/h (3 Bft) 96,98 %
04.08.2017 06:00 17,5 C 17,2 C 16,1 C 81 % 0 lf 1010,7 hPa 0,0 l/m 0,00 h 0,00 h 12 W/m 13,9 km/h (3 Bft) 97,24 %
04.08.2017 07:00 17,7 C 18,0 C 16,7 C 81 % 0 lf 1010,7 hPa 0,0 l/m 0,00 h 0,00 h 66 W/m 16,6 km/h (3 Bft) 94,02 %
04.08.2017 08:00 18,2 C 18,7 C 17,8 C 79 % 0 lf 1011,0 hPa 0,0 l/m 0,23 h 0,00 h 116 W/m 16,6 km/h (3 Bft) 99,07 %
04.08.2017 09:00 19,0 C 20,8 C 19,9 C 78 % 0 lf 1011,0 hPa 0,0 l/m 0,50 h 0,00 h 250 W/m 19,1 km/h (3 Bft) 95,94 %
04.08.2017 10:00 20,1 C 22,3 C 21,6 C 74 % 0 lf 1011,0 hPa 0,0 l/m 0,87 h 0,00 h 517 W/m 22,9 km/h (4 Bft) 94,80 %
04.08.2017 11:00 20,8 C 23,0 C 22,5 C 72 % 0 lf 1011,3 hPa 0,0 l/m 1,00 h 0,00 h 884 W/m 25,2 km/h (4 Bft) 97,79 %
04.08.2017 12:00 21,3 C 23,4 C 22,8 C 72 % 0 lf 1011,5 hPa 0,0 l/m 1,00 h 0,00 h 942 W/m 26,2 km/h (4 Bft) 96,82 %
04.08.2017 13:00 22,1 C 25,6 C 24,1 C 71 % 0 lf 1011,7 hPa 0,0 l/m 1,00 h 0,00 h 965 W/m 22,0 km/h (4 Bft) 95,16 %
04.08.2017 14:00 22,6 C 26,4 C 25,2 C 69 % 0 lf 1012,0 hPa 0,0 l/m 0,87 h 0,00 h 761 W/m 31,9 km/h (5 Bft) 97,58 %
04.08.2017 15:00 22,8 C 25,5 C 26,0 C 67 % 0 lf 1012,1 hPa 0,0 l/m 1,00 h 0,00 h 848 W/m 35,3 km/h (5 Bft) 96,08 %
04.08.2017 16:00 23,2 C 25,5 C 25,8 C 65 % 0 lf 1012,2 hPa 0,0 l/m 1,00 h 0,00 h 608 W/m 33,5 km/h (5 Bft) 96,08 %
04.08.2017 17:00 23,3 C 24,2 C 23,8 C 64 % 0 lf 1012,1 hPa 0,0 l/m 0,47 h 0,00 h 257 W/m 29,7 km/h (5 Bft) 96,79 %
04.08.2017 18:00 22,4 C 22,4 C 21,6 C 66 % 0 lf 1012,3 hPa 0,0 l/m 0,00 h 0,00 h 85 W/m 26,5 km/h (4 Bft) 97,69 %
04.08.2017 19:00 21,8 C 21,8 C 20,7 C 67 % 0 lf 1012,6 hPa 0,0 l/m 0,10 h 0,00 h 77 W/m 15,1 km/h (3 Bft) 96,36 %
04.08.2017 20:00 21,4 C 20,8 C 19,6 C 70 % 0 lf 1012,7 hPa 0,0 l/m 0,13 h 0,00 h 40 W/m 7,7 km/h (2 Bft) 94,59 %
04.08.2017 21:00 20,4 C 18,3 C 16,5 C 73 % 0 lf 1013,0 hPa 0,0 l/m 0,00 h 0,00 h 12 W/m 3,8 km/h (1 Bft) 98,65 %
04.08.2017 22:00 18,7 C 17,0 C 15,4 C 78 % 0 lf 1013,2 hPa 0,0 l/m 0,00 h 0,00 h 5 W/m 6,7 km/h (2 Bft) 96,03 %
04.08.2017 23:00 17,7 C 16,8 C 15,3 C 79 % 0 lf 1013,4 hPa 0,0 l/m 0,00 h 0,00 h 5 W/m 6,4 km/h (2 Bft) 94,60 %
05.08.2017 00:00 17,2 C 16,5 C 14,7 C 79 % 0 lf 1013,3 hPa 0,0 l/m 0,00 h 0,00 h 0 W/m 5,4 km/h (1 Bft) 97,60 %
05.08.2017 01:00 16,5 C 14,6 C 13,0 C 81 % 0 lf 1013,2 hPa 0,0 l/m 0,00 h 0,00 h 0 W/m 2,0 km/h (1 Bft) 98,01 %
05.08.2017 02:00 15,5 C 14,6 C 13,4 C 86 % 0 lf 1013,0 hPa 0,0 l/m 0,00 h 0,00 h 0 W/m 2,6 km/h (1 Bft) 94,26 %
05.08.2017 03:00 15,6 C 15,8 C 14,6 C 89 % 6 lf 1013,1 hPa 0,2 l/m 0,00 h 0,43 h 0 W/m 8,9 km/h (2 Bft) 97,78 %
05.08.2017 04:00 16,1 C 14,4 C 13,9 C 90 % 15 lf 1013,2 hPa 1,0 l/m 0,00 h 0,80 h 0 W/m 6,8 km/h (2 Bft) 96,43 %
05.08.2017 05:00 15,7 C 14,4 C 13,9 C 93 % 15 lf 1012,6 hPa 0,0 l/m 0,00 h 0,00 h 0 W/m 2,0 km/h (1 Bft) 96,03 %
05.08.2017 06:00 15,4 C 14,4 C 13,9 C 94 % 15 lf 1012,5 hPa 0,2 l/m 0,00 h 0,47 h 6 W/m 2,6 km/h (1 Bft) 96,84 %
05.08.2017 07:00 15,5 C 14,9 C 14,2 C 95 % 15 lf 1012,1 hPa 2,4 l/m 0,00 h 0,67 h 18 W/m 5,4 km/h (1 Bft) 95,32 %
05.08.2017 08:00 15,6 C 15,0 C 14,3 C 96 % 15 lf 1012,2 hPa 7,0 l/m 0,00 h 1,00 h 18 W/m 0,1 km/h (0 Bft) 97,01 %
05.08.2017 09:00 15,7 C 15,5 C 14,9 C 97 % 15 lf 1012,4 hPa 2,6 l/m 0,00 h 1,00 h 70 W/m 3,4 km/h (1 Bft) 97,65 %
05.08.2017 10:00 15,8 C 15,5 C 15,0 C 97 % 15 lf 1012,4 hPa 1,2 l/m 0,00 h 0,87 h 106 W/m 9,5 km/h (2 Bft) 93,95 %
05.08.2017 11:00 15,3 C 15,4 C 15,1 C 97 % 15 lf 1013,1 hPa 0,0 l/m 0,00 h 0,00 h 163 W/m 12,1 km/h (2 Bft) 97,01 %
05.08.2017 12:00 15,9 C 19,1 C 17,0 C 96 % 3 lf 1013,5 hPa 0,0 l/m 0,30 h 0,00 h 376 W/m 12,8 km/h (3 Bft) 98,71 %
05.08.2017 13:00 18,3 C 24,3 C 18,7 C 88 % 0 lf 1013,5 hPa 0,0 l/m 0,67 h 0,00 h 558 W/m 16,0 km/h (3 Bft) 93,95 %
05.08.2017 14:00 19,8 C 24,6 C 21,0 C 80 % 0 lf 1013,5 hPa 0,0 l/m 0,50 h 0,00 h 534 W/m 20,1 km/h (4 Bft) 97,08 %
05.08.2017 15:00 20,8 C 24,5 C 24,7 C 77 % 0 lf 1013,9 hPa 0,0 l/m 0,87 h 0,00 h 673 W/m 21,5 km/h (4 Bft) 98,29 %
05.08.2017 16:00 18,8 C 17,3 C 16,9 C 83 % 13 lf 1014,5 hPa 0,4 l/m 0,17 h 0,47 h 182 W/m 18,1 km/h (3 Bft) 94,99 %
05.08.2017 17:00 17,5 C 18,7 C 17,1 C 92 % 5 lf 1014,9 hPa 0,0 l/m 0,23 h 0,20 h 210 W/m 9,4 km/h (2 Bft) 96,96 %
05.08.2017 18:00 18,4 C 19,6 C 18,0 C 90 % 0 lf 1015,4 hPa 0,0 l/m 0,10 h 0,00 h 142 W/m 10,1 km/h (2 Bft) 96,40 %
05.08.2017 19:00 18,8 C 19,2 C 18,0 C 85 % 0 lf 1015,9 hPa 0,0 l/m 0,80 h 0,00 h 169 W/m 9,2 km/h (2 Bft) 97,15 %
05.08.2017 20:00 18,1 C 17,0 C 16,1 C 83 % 0 lf 1016,5 hPa 0,0 l/m 0,27 h 0,00 h 34 W/m 6,6 km/h (2 Bft) 95,09 %
05.08.2017 21:00 17,4 C 16,1 C 15,2 C 86 % 0 lf 1016,9 hPa 0,0 l/m 0,03 h 0,00 h 21 W/m 4,3 km/h (1 Bft) 97,01 %
05.08.2017 22:00 16,7 C 15,6 C 14,7 C 89 % 2 lf 1017,5 hPa 0,0 l/m 0,00 h 0,23 h 5 W/m 6,4 km/h (2 Bft) 97,01 %
05.08.2017 23:00 16,2 C 15,4 C 14,3 C 91 % 3 lf 1017,9 hPa 0,0 l/m 0,00 h 0,03 h 5 W/m 4,8 km/h (1 Bft) 96,46 %
06.08.2017 00:00 15,3 C 13,7 C 12,7 C 91 % 1 lf 1018,5 hPa 0,0 l/m 0,00 h 0,00 h 5 W/m 3,6 km/h (1 Bft) 90,01 %
06.08.2017 01:00 14,2 C 12,6 C 11,7 C 92 % 3 lf 1019,0 hPa 0,0 l/m 0,00 h 0,00 h 4 W/m 6,7 km/h (2 Bft) 97,01 %
06.08.2017 02:00 13,3 C 12,1 C 11,4 C 94 % 6 lf 1019,4 hPa 0,0 l/m 0,00 h 0,00 h 4 W/m 7,9 km/h (2 Bft) 97,94 %
06.08.2017 03:00 12,6 C 11,5 C 10,6 C 94 % 13 lf 1019,8 hPa 0,0 l/m 0,00 h 0,00 h 5 W/m 5,3 km/h (1 Bft) 95,29 %
06.08.2017 04:00 12,1 C 10,9 C 10,3 C 95 % 15 lf 1020,2 hPa 0,0 l/m 0,00 h 0,00 h 3 W/m 6,7 km/h (2 Bft) 95,36 %
06.08.2017 05:00 11,9 C 10,9 C 10,1 C 96 % 15 lf 1020,4 hPa 0,0 l/m 0,00 h 0,00 h 5 W/m 6,9 km/h (2 Bft) 97,86 %
06.08.2017 06:00 11,7 C 10,9 C 10,0 C 96 % 15 lf 1020,8 hPa 0,0 l/m 0,20 h 0,03 h 25 W/m 7,5 km/h (2 Bft) 97,45 %
06.08.2017 07:00 11,9 C 11,7 C 10,8 C 97 % 15 lf 1021,3 hPa 0,0 l/m 1,00 h 0,00 h 141 W/m 9,8 km/h (2 Bft) 95,08 %
06.08.2017 08:00 13,0 C 15,9 C 12,1 C 98 % 15 lf 1022,0 hPa 0,0 l/m 1,00 h 0,00 h 313 W/m 10,6 km/h (2 Bft) 97,51 %
06.08.2017 09:00 15,7 C 25,4 C 15,7 C 96 % 0 lf 1022,5 hPa 0,0 l/m 0,97 h 0,00 h 473 W/m 12,2 km/h (2 Bft) 95,83 %
06.08.2017 10:00 17,9 C 23,2 C 19,8 C 81 % 0 lf 1022,7 hPa 0,0 l/m 0,20 h 0,00 h 272 W/m 11,4 km/h (2 Bft) 96,98 %
06.08.2017 11:00 19,5 C 27,5 C 24,3 C 72 % 0 lf 1023,0 hPa 0,0 l/m 1,00 h 0,00 h 762 W/m 13,6 km/h (3 Bft) 95,44 %
06.08.2017 12:00 20,5 C 24,9 C 21,9 C 66 % 0 lf 1022,7 hPa 0,0 l/m 0,37 h 0,00 h 430 W/m 11,6 km/h (2 Bft) 97,92 %
06.08.2017 13:00 21,6 C 29,7 C 23,0 C 61 % 0 lf 1022,4 hPa 0,0 l/m 1,00 h 0,00 h 958 W/m 13,8 km/h (3 Bft) 97,05 %
06.08.2017 14:00 23,2 C 30,6 C 25,5 C 55 % 0 lf 1022,1 hPa 0,0 l/m 1,00 h 0,00 h 889 W/m 12,7 km/h (3 Bft) 94,23 %
06.08.2017 15:00 22,6 C 26,2 C 27,2 C 56 % 0 lf 1021,9 hPa 0,0 l/m 0,60 h 0,00 h 553 W/m 10,5 km/h (2 Bft) 99,24 %
06.08.2017 16:00 22,9 C 25,1 C 25,2 C 56 % 0 lf 1021,8 hPa 0,0 l/m 0,43 h 0,00 h 388 W/m 8,5 km/h (2 Bft) 94,95 %
06.08.2017 17:00 22,2 C 23,7 C 21,7 C 57 % 0 lf 1021,9 hPa 0,0 l/m 0,63 h 0,00 h 417 W/m 10,1 km/h (2 Bft) 95,73 %
06.08.2017 18:00 21,9 C 22,3 C 20,1 C 56 % 0 lf 1021,7 hPa 0,0 l/m 1,00 h 0,00 h 347 W/m 9,9 km/h (2 Bft) 97,86 %
06.08.2017 19:00 21,2 C 21,0 C 18,8 C 57 % 0 lf 1021,4 hPa 0,0 l/m 0,97 h 0,00 h 169 W/m 8,3 km/h (2 Bft) 96,36 %
06.08.2017 20:00 20,5 C 19,1 C 16,6 C 60 % 0 lf 1021,4 hPa 0,0 l/m 0,30 h 0,00 h 42 W/m 5,1 km/h (1 Bft) 94,72 %
06.08.2017 21:00 18,4 C 15,9 C 13,7 C 68 % 0 lf 1021,6 hPa 0,0 l/m 0,00 h 0,00 h 5 W/m 0,4 km/h (0 Bft) 98,41 %
06.08.2017 22:00 16,6 C 14,0 C 12,5 C 76 % 0 lf 1021,6 hPa 0,0 l/m 0,00 h 0,00 h 4 W/m 0,0 km/h (0 Bft) 95,09 %
06.08.2017 23:00 14,9 C 13,2 C 11,7 C 83 % 0 lf 1021,5 hPa 0,0 l/m 0,00 h 0,00 h 3 W/m 0,5 km/h (0 Bft) 98,22 %
Min-Datum _ 06.08.17 06.08.17 06.08.17 31.07.17 31.07.17 03.08.17 - - - - 31.07.17 01.08.17
_ Min-Zeit 06:32 04:12 03:56 15:02 00:00 07:46 - - - - 00:04 00:04
Minimum _ 11,6 C 10,6 C 10,0 C 49 % 0 lf 1008,4 hPa - - - - 0,0 km/h (0 Bft) 4,76 %
Max-Datum _ 31.07.17 31.07.17 31.07.17 03.08.17 31.07.17 06.08.17 05.08.17 31.07.17 02.08.17 04.08.17 04.08.17 31.07.17
_ Max-Zeit 17:00 14:40 15:18 05:50 06:02 11:06 08:16 10:50 06:55 13:06 14:10 01:32
Maximum _ 26,8 C 33,9 C 36,1 C 99 % 15 lf 1023,0 hPa 7,0 l/m 0,07 h 0,08 h 1136 W/m 50,2 km/h
W-SW (7 Bft)
100,00 %
Durchschnitt _ 19,1 C 19,8 C 18,5 C 80 % 4 lf 1014,1 hPa #25,0 l/m #48:02 h #18:02 h 248 W/m 10,6 km/h (2 Bft) 96,38 %
© 2017 W. Hausmann